Hamilton, KS

7:01 PM CDT on September 02, 2014 (GMT -0500)
Toronto, KS | Change Station
CLOSE
Current Station
Personal Weather Station
Location: Toronto, KS
Elevation: 971 ft
Nearby Weather Stations

Elev 971 ft 37.80 °N, 95.95 °W | Updated 1 minute ago

Clear
Clear
81.4 °F
Feels Like 84 °F
N
0.0
Wind Variable Wind from SE
Gusts 1.0 mph

Today
High -- | Low -- °F
--% Chance of Precip.
Yesterday
High -- | Low -- °F
Precip. -- in
6:55 AM 7:52 PM
First Quarter, 56% visible
Pressure 29.90 in
Visibility 10.0 miles
Clouds Clear
Heat Index 84 °F
Dew Point 68 °F
Humidity 64%
Rainfall 0.39 in
Snow Depth Not available.
UV 1 out of 12
Pollen 10.30 out of 12
Air Quality Not available.
Flu Activity Not available.
METAR KEMP 022353Z AUTO 14005KT 10SM CLR 28/20 A2993 RMK AO2 SLP124 T02780200 10289 20228 56013

More Conditions Fewer Conditions

Pressure 29.90 in
Visibility 10.0 miles
Clouds Clear
Heat Index 84 °F
Dew Point 68 °F
Humidity 64%
Rainfall 0.39 in
Snow Depth Not available.
UV 1 out of 12
Pollen 10.30 out of 12
Air Quality Not available.
Flu Activity Not available.
METAR KEMP 022353Z AUTO 14005KT 10SM CLR 28/20 A2993 RMK AO2 SLP124 T02780200 10289 20228 56013

More Conditions Fewer Conditions

10-Day Weather Forecast

Almanac

Astronomy

Sep. 02, 2014 Rise Set
Actual Time 6:55 AM CDT 7:52 PM CDT
Civil Twilight 6:28 AM CDT 8:19 PM CDT
Nautical Twilight 5:56 AM CDT 8:51 PM CDT
Astronomical Twilight 5:23 AM CDT 9:24 PM CDT
Moon 2:33 PM CDT (9/2) 12:02 AM CDT (9/2)
Length of Visible Light 13h 50m
Length of Day
12h 57m
Tomorrow will be 2m 23s shorter.
First Quarter, 56% of the Moon is Illuminated
Today
First Quarter
Sep 8
Full
Sep 15
Last Quarter
Sep 24
New
Oct 1
First Quarter

Today's Extremes

State Highs State Lows

Community

WunderPhotos

Upload Photos

1,749,803 photos uploaded!

Nearby

Snow Depth

Station Depth Elevation
No new snow has been reported.

Earthquake Activity

City Distance Mag. Time & Date
Medford, Oklahoma 129 miles 3.3 11:58 PM CDT
2014-09-01
Perry, Oklahoma 140 miles 3.1 6:46 AM CDT
2014-09-01
Enid, Oklahoma 135 miles 3.4 11:57 AM CDT
2014-08-31
Enid, Oklahoma 137 miles 3.7 2:20 AM CDT
2014-08-31
Minimum magnitude displayed is 2.5.

Coastal Water Temperatures

Place Temperature
No Stations Reporting

Nearby Weather Stations